Time;durP1;ratioP1;P1;durP2;ratioP2;P2;SDS_P1;SDS_P2;PMS_P1;PMS_P2;Temp;Humidity;BMP_temperature;BMP_pressure;BME280_temperature;BME280_humidity;BME280_pressure;Samples;Min_cycle;Max_cycle;Signal;HPM_P1;HPM_P2
2021/08/16 00:00:50;;;;;;;9.90;6.50;;;;;;;15.85;89.49;100068.84;4950952;28;20049;-83
2021/08/16 00:03:16;;;;;;;9.00;5.97;;;;;;;15.85;89.19;100065.31;4938372;28;20044;-82
2021/08/16 00:05:43;;;;;;;6.93;5.97;;;;;;;15.86;89.14;100057.25;4969138;28;20038;-82
2021/08/16 00:08:10;;;;;;;8.93;5.82;;;;;;;15.82;89.39;100046.84;4955005;28;20042;-82
2021/08/16 00:10:37;;;;;;;20.63;8.23;;;;;;;15.84;89.23;100047.63;4935999;28;20039;-83
2021/08/16 00:13:04;;;;;;;16.85;8.45;;;;;;;15.75;89.90;100049.81;4953622;28;20062;-82
2021/08/16 00:15:31;;;;;;;17.58;6.72;;;;;;;15.76;90.02;100042.69;4953495;28;20056;-82
2021/08/16 00:17:59;;;;;;;10.75;6.43;;;;;;;15.74;89.84;100034.78;4965361;28;20104;-82
2021/08/16 00:20:26;;;;;;;10.40;6.32;;;;;;;15.71;89.73;100034.06;4955508;28;20210;-82
2021/08/16 00:22:53;;;;;;;9.40;5.90;;;;;;;15.67;90.36;100040.50;4997784;23;20106;-81
2021/08/16 00:25:20;;;;;;;8.02;5.80;;;;;;;15.66;90.24;100036.97;4950399;28;20046;-82
2021/08/16 00:27:47;;;;;;;8.23;6.25;;;;;;;15.60;90.51;100033.72;4923936;28;20058;-81
2021/08/16 00:30:15;;;;;;;8.88;6.50;;;;;;;15.61;89.99;100030.16;4921837;28;20046;-81
2021/08/16 00:32:41;;;;;;;7.75;5.88;;;;;;;15.57;90.16;100026.75;4940403;28;20062;-81
2021/08/16 00:35:08;;;;;;;10.25;6.65;;;;;;;15.57;89.94;100021.44;4938770;28;20093;-82
2021/08/16 00:37:35;;;;;;;12.85;6.85;;;;;;;15.59;89.97;100029.34;4941702;28;20047;-81
2021/08/16 00:40:02;;;;;;;8.40;5.93;;;;;;;15.53;90.77;100016.34;4945502;28;20053;-83
2021/08/16 00:42:30;;;;;;;8.93;6.47;;;;;;;15.54;90.93;100012.72;4951452;28;20097;-81
2021/08/16 00:44:56;;;;;;;11.50;6.00;;;;;;;15.53;90.51;100013.66;4937373;28;20043;-80
2021/08/16 00:47:23;;;;;;;8.75;6.60;;;;;;;15.49;90.96;100018.31;4950600;28;20043;-81
2021/08/16 00:49:50;;;;;;;7.93;5.88;;;;;;;15.47;91.17;100022.84;4934799;28;20051;-81
2021/08/16 00:52:17;;;;;;;10.38;6.20;;;;;;;15.47;91.29;100018.38;4931790;28;20046;-80
2021/08/16 00:54:43;;;;;;;8.65;6.32;;;;;;;15.51;90.85;100012.91;4951880;28;20043;-81
2021/08/16 00:57:10;;;;;;;11.80;6.40;;;;;;;15.43;91.04;100013.28;4938898;28;20711;-81
2021/08/16 00:59:37;;;;;;;9.98;6.32;;;;;;;15.37;91.63;100017.09;4949964;28;20528;-81
2021/08/16 01:02:04;;;;;;;9.30;6.38;;;;;;;15.34;92.60;100011.09;4949052;28;20381;-81
2021/08/16 01:04:31;;;;;;;7.20;5.55;;;;;;;15.32;92.95;100008.50;4953549;28;20035;-80
2021/08/16 01:06:57;;;;;;;7.00;6.25;;;;;;;15.32;93.39;100005.00;4952719;28;20502;-81
2021/08/16 01:09:24;;;;;;;9.85;6.72;;;;;;;15.32;92.58;100005.00;4959693;28;21041;-81
2021/08/16 01:11:51;;;;;;;7.57;5.88;;;;;;;15.30;92.98;100002.41;4937544;28;20208;-82
2021/08/16 01:14:18;;;;;;;8.15;6.32;;;;;;;15.25;93.49;100007.09;4952690;28;20069;-81
2021/08/16 01:16:46;;;;;;;9.60;6.43;;;;;;;15.23;94.23;100002.78;4922758;28;20047;-81
2021/08/16 01:19:13;;;;;;;8.27;6.00;;;;;;;15.20;94.70;99999.31;4932222;29;20115;-81
2021/08/16 01:21:39;;;;;;;7.05;5.35;;;;;;;15.22;95.19;100001.94;4926353;28;20043;-81
2021/08/16 01:24:06;;;;;;;8.02;6.18;;;;;;;15.24;94.86;99989.41;4953299;28;20086;-82
2021/08/16 01:26:36;;;;;;;8.55;6.45;;;;;;;15.27;95.74;99981.25;4928590;28;20039;-81
2021/08/16 01:29:04;;;;;;;8.55;6.60;;;;;;;15.31;95.47;99985.50;4944837;28;20094;-81
2021/08/16 01:31:50;;;;;;;8.57;5.72;;;;;;;15.28;95.92;99980.31;4954398;28;20040;-81
2021/08/16 01:34:17;;;;;;;9.52;6.50;;;;;;;15.27;96.58;99961.78;4928274;28;20055;-80
2021/08/16 01:36:44;;;;;;;9.18;6.15;;;;;;;15.27;96.42;99956.44;4953707;28;20055;-81
2021/08/16 01:39:11;;;;;;;10.20;6.70;;;;;;;15.30;95.54;99946.53;4953576;28;20051;-82
2021/08/16 01:41:38;;;;;;;6.72;6.00;;;;;;;15.25;96.19;99934.38;4948113;28;20043;-81
2021/08/16 01:44:05;;;;;;;7.82;5.63;;;;;;;15.25;96.33;99937.91;4906332;29;20083;-82
2021/08/16 01:46:31;;;;;;;7.07;5.55;;;;;;;15.26;96.26;99922.78;4920744;29;20047;-81
2021/08/16 01:48:58;;;;;;;8.43;5.78;;;;;;;15.34;95.67;99920.59;4911989;28;20049;-81
2021/08/16 01:51:25;;;;;;;8.10;6.50;;;;;;;15.34;95.68;99920.59;4953552;28;20043;-80
2021/08/16 01:53:51;;;;;;;9.38;5.90;;;;;;;15.37;94.88;99907.13;4942262;28;20039;-81
2021/08/16 01:56:19;;;;;;;8.85;6.40;;;;;;;15.33;95.95;99910.91;4933287;28;20058;-80
2021/08/16 01:58:46;;;;;;;9.27;6.45;;;;;;;15.35;95.88;99903.69;4945017;28;20043;-79
2021/08/16 02:01:13;;;;;;;7.57;5.97;;;;;;;15.35;95.57;99920.50;4930624;28;20131;-80
2021/08/16 02:03:40;;;;;;;9.48;6.18;;;;;;;15.33;96.26;99909.09;4937272;28;20042;-81
2021/08/16 02:06:06;;;;;;;8.80;6.60;;;;;;;15.38;95.05;99890.19;4926961;28;20399;-80
2021/08/16 02:08:33;;;;;;;9.98;6.63;;;;;;;15.35;95.37;99890.38;4941617;28;20053;-80
2021/08/16 02:11:00;;;;;;;10.65;6.60;;;;;;;15.38;94.81;99884.88;4939993;28;20042;-81
2021/08/16 02:13:26;;;;;;;8.35;6.10;;;;;;;15.35;95.47;99883.25;4941425;28;20046;-80
2021/08/16 02:15:53;;;;;;;7.40;6.07;;;;;;;15.32;95.82;99877.25;4927150;28;20090;-80
2021/08/16 02:18:20;;;;;;;8.15;7.05;;;;;;;15.32;96.24;99872.78;4941145;28;20047;-81
2021/08/16 02:20:46;;;;;;;8.57;6.38;;;;;;;15.31;97.14;99867.53;4927019;29;20043;-82
2021/08/16 02:23:13;;;;;;;15.80;7.20;;;;;;;15.27;97.51;99861.50;4950469;28;20101;-80
2021/08/16 02:25:39;;;;;;;8.85;5.90;;;;;;;15.31;97.57;99870.19;4906927;28;20050;-79
2021/08/16 02:28:06;;;;;;;8.60;6.32;;;;;;;15.31;97.72;99863.06;4931623;28;20027;-81
2021/08/16 02:30:33;;;;;;;7.93;5.95;;;;;;;15.32;97.34;99869.25;4936675;28;20097;-80
2021/08/16 02:33:00;;;;;;;8.38;6.20;;;;;;;15.31;97.27;99873.72;4914111;28;20171;-81
2021/08/16 02:35:26;;;;;;;8.98;7.38;;;;;;;15.29;96.93;99869.41;4954229;28;20042;-82
2021/08/16 02:37:53;;;;;;;8.32;6.32;;;;;;;15.32;96.31;99874.59;4925249;28;20117;-82
2021/08/16 02:40:20;;;;;;;7.45;5.82;;;;;;;15.26;95.97;99877.56;4936800;28;20586;-81
2021/08/16 02:42:47;;;;;;;7.85;5.85;;;;;;;15.18;96.64;99876.16;4947525;28;20047;-81
2021/08/16 02:45:14;;;;;;;10.45;7.05;;;;;;;15.20;96.68;99874.25;4958619;28;20046;-80
2021/08/16 02:47:41;;;;;;;6.97;5.93;;;;;;;15.25;95.00;99865.19;4952909;28;20094;-80
2021/08/16 02:50:07;;;;;;;8.48;5.85;;;;;;;15.18;95.30;99870.81;4946135;28;20046;-81
2021/08/16 02:52:34;;;;;;;7.45;5.93;;;;;;;15.13;95.07;99862.25;4952701;28;20050;-81
2021/08/16 02:55:01;;;;;;;8.13;5.80;;;;;;;15.04;95.68;99870.66;4924794;28;20031;-80
2021/08/16 02:57:28;;;;;;;10.93;6.72;;;;;;;14.99;96.15;99867.41;4936328;28;20767;-80
2021/08/16 02:59:55;;;;;;;8.07;6.22;;;;;;;14.95;96.44;99857.84;4943083;28;20412;-81
2021/08/16 03:02:22;;;;;;;9.75;6.65;;;;;;;14.89;96.87;99860.84;4924316;28;20516;-79
2021/08/16 03:04:49;;;;;;;8.40;6.25;;;;;;;14.87;97.18;99870.66;4970718;28;20062;-81
2021/08/16 03:07:16;;;;;;;10.25;6.47;;;;;;;14.81;98.11;99869.19;4933532;28;20055;-81
2021/08/16 03:09:42;;;;;;;7.75;6.40;;;;;;;14.80;98.10;99872.81;4951643;28;20043;-81
2021/08/16 03:12:09;;;;;;;9.70;6.57;;;;;;;14.87;97.39;99874.19;4937388;29;20134;-81
2021/08/16 03:14:36;;;;;;;9.35;6.97;;;;;;;14.82;97.51;99876.25;4931676;28;20110;-82
2021/08/16 03:17:03;;;;;;;9.13;6.53;;;;;;;14.76;97.72;99873.88;4958449;28;20047;-81
2021/08/16 03:19:30;;;;;;;9.82;6.60;;;;;;;14.77;97.70;99877.41;4956185;28;20448;-82
2021/08/16 03:21:57;;;;;;;7.43;5.60;;;;;;;14.69;98.88;99864.47;4941863;28;20046;-81
2021/08/16 03:24:23;;;;;;;7.93;6.45;;;;;;;14.73;99.33;99860.75;4940679;28;20042;-82
2021/08/16 03:26:51;;;;;;;9.35;6.35;;;;;;;14.72;100.00;99864.34;4953978;28;20043;-82
2021/08/16 03:29:18;;;;;;;9.77;6.45;;;;;;;14.82;99.08;99872.72;4928341;28;20055;-81
2021/08/16 03:31:44;;;;;;;7.38;5.88;;;;;;;14.85;99.61;99875.22;4941333;29;20453;-82
2021/08/16 03:34:11;;;;;;;7.65;5.68;;;;;;;14.84;100.00;99869.03;4922455;28;20113;-80
2021/08/16 03:36:38;;;;;;;10.43;5.82;;;;;;;14.91;98.80;99866.94;4936957;29;20567;-82
2021/08/16 03:39:05;;;;;;;8.63;6.60;;;;;;;14.95;98.89;99881.78;4954817;28;20046;-80
2021/08/16 03:41:32;;;;;;;9.95;6.88;;;;;;;15.09;99.22;99902.38;4912981;28;20039;-82
2021/08/16 03:43:58;;;;;;;10.50;6.28;;;;;;;15.03;99.79;99906.19;4935611;28;20043;-82
2021/08/16 03:46:25;;;;;;;9.40;6.72;;;;;;;15.10;99.12;99920.06;4928445;28;20043;-79
2021/08/16 03:48:52;;;;;;;10.40;7.70;;;;;;;15.08;100.00;99930.78;4934819;28;20086;-82
2021/08/16 03:51:18;;;;;;;10.55;6.60;;;;;;;15.11;100.00;99906.66;4938326;28;20034;-82
2021/08/16 03:53:45;;;;;;;10.68;6.82;;;;;;;15.23;100.00;99917.63;4938831;28;20058;-81
2021/08/16 03:56:12;;;;;;;9.77;6.60;;;;;;;15.20;100.00;99926.63;4936986;28;20090;-81
2021/08/16 03:58:41;;;;;;;10.95;7.55;;;;;;;15.10;100.00;99886.31;4930062;28;20091;-81
2021/08/16 04:01:11;;;;;;;9.68;6.95;;;;;;;15.17;100.00;99863.78;4932163;28;20047;-80
2021/08/16 04:03:40;;;;;;;9.70;6.13;;;;;;;15.24;100.00;99851.03;4941125;28;20139;-81
2021/08/16 04:06:08;;;;;;;8.60;6.32;;;;;;;15.10;100.00;99865.03;4937532;28;20046;-82
2021/08/16 04:08:38;;;;;;;8.23;6.90;;;;;;;15.02;100.00;99869.03;4952361;28;20047;-82
2021/08/16 04:11:10;;;;;;;8.75;6.40;;;;;;;15.03;100.00;99863.63;4940814;28;20053;-82
2021/08/16 04:13:37;;;;;;;8.80;6.63;;;;;;;14.91;100.00;99849.19;4931757;29;20404;-81
2021/08/16 04:16:04;;;;;;;8.43;6.55;;;;;;;15.01;100.00;99841.56;4934142;28;20039;-82
2021/08/16 04:18:31;;;;;;;8.50;6.45;;;;;;;14.92;100.00;99863.31;4926547;28;20046;-81
2021/08/16 04:20:59;;;;;;;9.38;6.63;;;;;;;14.90;100.00;99860.75;4919333;28;20057;-81
2021/08/16 04:23:25;;;;;;;9.15;6.80;;;;;;;14.93;100.00;99857.94;4950498;28;20058;-81
2021/08/16 04:25:52;;;;;;;7.57;6.60;;;;;;;15.05;100.00;99859.13;4931892;28;20042;-80
2021/08/16 04:28:19;;;;;;;8.48;7.30;;;;;;;15.12;100.00;99878.25;4953783;28;20054;-80
2021/08/16 04:30:46;;;;;;;9.30;7.00;;;;;;;15.08;100.00;99887.34;4967207;28;20032;-81
2021/08/16 04:33:13;;;;;;;10.30;7.38;;;;;;;15.10;100.00;99875.69;4956388;28;20050;-80
2021/08/16 04:35:40;;;;;;;9.25;6.38;;;;;;;15.22;100.00;99879.53;4924700;28;20101;-81
2021/08/16 04:38:07;;;;;;;9.98;6.97;;;;;;;15.08;100.00;99858.09;4948619;28;20049;-79
2021/08/16 04:40:33;;;;;;;12.60;7.25;;;;;;;15.01;100.00;99852.22;4967837;28;20050;-82
2021/08/16 04:43:00;;;;;;;9.40;6.93;;;;;;;15.04;100.00;99860.03;4959678;28;20050;-82
2021/08/16 04:45:27;;;;;;;8.40;6.43;;;;;;;15.05;100.00;99861.78;4937319;28;20063;-81
2021/08/16 04:47:53;;;;;;;9.18;6.90;;;;;;;15.06;100.00;99868.81;4955325;28;20045;-81
2021/08/16 04:50:21;;;;;;;9.15;7.28;;;;;;;15.11;100.00;99869.41;4966640;28;20043;-80
2021/08/16 04:52:48;;;;;;;9.20;6.63;;;;;;;15.19;100.00;99866.38;4956967;28;20051;-82
2021/08/16 04:55:15;;;;;;;7.43;5.82;;;;;;;15.26;100.00;99858.94;4930151;29;20039;-82
2021/08/16 04:57:41;;;;;;;9.70;6.80;;;;;;;15.33;100.00;99850.53;4913653;28;20047;-80
2021/08/16 05:00:10;;;;;;;9.18;6.43;;;;;;;15.43;100.00;99850.91;4955407;28;20105;-82
2021/08/16 05:02:37;;;;;;;10.00;7.10;;;;;;;15.49;100.00;99850.59;4923272;28;20047;-80
2021/08/16 05:05:14;;;;;;;7.97;6.97;;;;;;;15.56;100.00;99854.66;4957819;28;20058;-79
2021/08/16 05:07:52;;;;;;;9.45;7.10;;;;;;;15.61;100.00;99849.09;4959391;28;20554;-82
2021/08/16 05:10:20;;;;;;;8.20;6.28;;;;;;;15.72;100.00;99855.56;4948196;28;20054;-82
2021/08/16 05:12:48;;;;;;;9.60;7.10;;;;;;;15.69;100.00;99853.06;4905727;29;20509;-81
2021/08/16 05:15:15;;;;;;;8.63;6.57;;;;;;;15.73;100.00;99856.44;4944071;28;20032;-82
2021/08/16 05:17:42;;;;;;;10.75;6.78;;;;;;;15.73;100.00;99867.94;4931480;29;20433;-82
2021/08/16 05:20:09;;;;;;;8.15;6.53;;;;;;;15.76;100.00;99854.44;4939413;28;20058;-81
2021/08/16 05:22:37;;;;;;;9.70;7.00;;;;;;;15.80;100.00;99859.59;4956924;28;20046;-82
2021/08/16 05:25:05;;;;;;;9.07;6.35;;;;;;;15.83;100.00;99864.78;4931463;29;20078;-81
2021/08/16 05:27:32;;;;;;;9.38;6.72;;;;;;;15.84;100.00;99870.00;4949236;28;20101;-79
2021/08/16 05:29:59;;;;;;;10.07;7.10;;;;;;;15.85;100.00;99863.75;4939175;28;20113;-81
2021/08/16 05:32:25;;;;;;;8.73;6.57;;;;;;;15.96;100.00;99868.47;4937844;28;20051;-82
2021/08/16 05:34:52;;;;;;;11.10;7.07;;;;;;;15.87;100.00;99858.31;4933084;28;20050;-81
2021/08/16 05:37:19;;;;;;;9.45;7.18;;;;;;;15.84;100.00;99861.16;4944622;28;20083;-81
2021/08/16 05:39:45;;;;;;;7.78;6.57;;;;;;;15.85;100.00;99863.75;4943721;28;20047;-82
2021/08/16 05:42:15;;;;;;;11.57;7.18;;;;;;;15.88;100.00;99863.56;4955437;28;20047;-82
2021/08/16 05:44:42;;;;;;;7.85;6.43;;;;;;;15.94;100.00;99870.38;4939997;28;20124;-83
2021/08/16 05:47:09;;;;;;;10.32;6.65;;;;;;;16.01;100.00;99869.94;4932635;29;20106;-84
2021/08/16 05:49:35;;;;;;;11.38;7.22;;;;;;;16.06;100.00;99869.69;4943011;28;20102;-81
2021/08/16 05:52:03;;;;;;;10.27;8.07;;;;;;;16.08;100.00;99872.28;4946902;28;20047;-81
2021/08/16 05:54:29;;;;;;;9.52;7.13;;;;;;;16.17;100.00;99875.28;4941825;28;20042;-81
2021/08/16 05:56:56;;;;;;;8.43;6.00;;;;;;;16.52;100.00;99867.94;4933839;29;20497;-81
2021/08/16 05:59:22;;;;;;;10.10;7.13;;;;;;;16.92;100.00;99872.81;4943144;28;20043;-83
2021/08/16 06:01:49;;;;;;;8.43;5.97;;;;;;;17.09;100.00;99878.00;4965435;28;20047;-81
2021/08/16 06:04:16;;;;;;;10.70;6.93;;;;;;;16.98;100.00;99878.63;4932652;28;20166;-83
2021/08/16 06:06:42;;;;;;;8.68;6.72;;;;;;;16.99;100.00;99879.50;4940727;28;20042;-82
2021/08/16 06:09:09;;;;;;;8.63;6.97;;;;;;;17.01;100.00;99878.44;4950619;28;20054;-80
2021/08/16 06:11:36;;;;;;;7.95;5.88;;;;;;;16.97;100.00;99876.03;4949616;28;20039;-80
2021/08/16 06:14:02;;;;;;;9.77;6.72;;;;;;;16.91;100.00;99871.09;4924087;28;20431;-82
2021/08/16 06:16:29;;;;;;;9.18;6.55;;;;;;;16.93;100.00;99882.53;4953522;28;20296;-81
2021/08/16 06:18:56;;;;;;;8.27;5.88;;;;;;;16.93;100.00;99872.72;4941481;29;20054;-82
2021/08/16 06:21:23;;;;;;;9.10;6.72;;;;;;;16.97;100.00;99886.72;4933419;28;20098;-82
2021/08/16 06:23:49;;;;;;;8.43;6.30;;;;;;;17.04;100.00;99878.25;4928465;28;20117;-83
2021/08/16 06:26:17;;;;;;;9.52;6.53;;;;;;;17.22;100.00;99875.44;4938519;28;20042;-82
2021/08/16 06:28:44;;;;;;;8.07;5.53;;;;;;;18.44;100.00;99884.66;4942024;28;20050;-82
2021/08/16 06:31:10;;;;;;;8.95;5.70;;;;;;;20.28;83.93;99872.88;4940300;28;20487;-82
2021/08/16 06:33:40;;;;;;;10.98;4.82;;;;;;;21.66;78.85;99878.53;4940641;28;20054;-83
2021/08/16 06:36:07;;;;;;;10.00;5.80;;;;;;;22.92;72.30;99876.31;4988205;23;20084;-81
2021/08/16 06:38:34;;;;;;;6.78;5.72;;;;;;;23.81;66.48;99876.78;4934067;29;20057;-83
2021/08/16 06:41:02;;;;;;;7.53;5.32;;;;;;;24.56;62.25;99865.53;4949814;28;20039;-81
2021/08/16 06:43:30;;;;;;;7.32;4.43;;;;;;;24.74;62.83;99863.00;4937965;29;20039;-81
2021/08/16 06:45:57;;;;;;;6.53;4.43;;;;;;;24.87;61.66;99862.69;4914056;28;20098;-81
2021/08/16 06:48:24;;;;;;;6.55;4.05;;;;;;;24.68;59.55;99858.13;4939882;28;20416;-80
2021/08/16 06:50:51;;;;;;;6.78;4.65;;;;;;;24.50;60.61;99849.03;4932970;29;20058;-81
2021/08/16 06:53:17;;;;;;;6.70;5.03;;;;;;;24.19;62.52;99857.16;4919649;28;20107;-81
2021/08/16 06:55:45;;;;;;;5.50;5.00;;;;;;;23.98;63.14;99841.06;4954417;28;20123;-81
2021/08/16 06:58:12;;;;;;;6.90;5.05;;;;;;;23.85;62.98;99854.78;4936134;29;20043;-81
2021/08/16 07:00:41;;;;;;;8.05;5.57;;;;;;;23.61;64.13;99850.69;4935632;28;20539;-82
2021/08/16 07:03:09;;;;;;;7.47;5.03;;;;;;;23.48;66.17;99856.28;4957359;28;20070;-81
2021/08/16 07:05:43;;;;;;;5.75;4.68;;;;;;;23.24;66.80;99853.84;4939493;28;20050;-81
2021/08/16 07:08:14;;;;;;;6.05;4.93;;;;;;;23.20;67.60;99865.88;4921110;29;20497;-81
2021/08/16 07:10:41;;;;;;;7.03;5.20;;;;;;;23.00;66.42;99862.19;4920135;29;20099;-81
2021/08/16 07:13:09;;;;;;;6.35;4.75;;;;;;;22.86;67.07;99854.41;4937967;29;20047;-81
2021/08/16 07:15:37;;;;;;;7.13;5.00;;;;;;;22.76;67.24;99854.31;4936112;28;20412;-80
2021/08/16 07:18:04;;;;;;;7.03;5.03;;;;;;;22.82;68.91;99859.19;4954127;28;20342;-83
2021/08/16 07:20:32;;;;;;;5.90;4.88;;;;;;;22.84;67.98;99856.34;4943075;28;20047;-84
2021/08/16 07:22:58;;;;;;;7.60;4.50;;;;;;;22.92;66.81;99857.44;4937166;29;20051;-82
2021/08/16 07:25:25;;;;;;;6.13;4.38;;;;;;;22.88;66.87;99850.63;4936763;28;20166;-81
2021/08/16 07:27:52;;;;;;;6.95;4.70;;;;;;;23.00;68.43;99848.72;4940128;28;20046;-82
2021/08/16 07:30:19;;;;;;;5.82;4.35;;;;;;;23.12;67.51;99846.81;4948694;29;20103;-82
2021/08/16 07:32:46;;;;;;;7.43;4.30;;;;;;;23.28;67.04;99852.59;4930570;28;20527;-81
2021/08/16 07:35:13;;;;;;;5.55;3.83;;;;;;;23.46;67.09;99837.53;4953174;28;20500;-81
2021/08/16 07:37:40;;;;;;;6.15;4.35;;;;;;;23.51;65.71;99834.44;4955369;28;20106;-82
2021/08/16 07:40:07;;;;;;;6.68;4.38;;;;;;;23.65;64.92;99841.34;4939061;28;20665;-82
2021/08/16 07:42:34;;;;;;;5.43;4.53;;;;;;;23.65;64.62;99831.44;4935659;29;20039;-83
2021/08/16 07:45:00;;;;;;;7.50;4.30;;;;;;;23.85;64.85;99843.13;4927801;29;20458;-80
2021/08/16 07:47:27;;;;;;;5.25;4.50;;;;;;;23.84;62.98;99833.34;4914814;28;20055;-81
2021/08/16 07:49:54;;;;;;;6.78;4.93;;;;;;;24.02;64.07;99837.09;4946999;28;20541;-81
2021/08/16 07:52:20;;;;;;;6.05;4.65;;;;;;;24.03;63.88;99838.78;4928592;28;20137;-82
2021/08/16 07:54:47;;;;;;;5.65;4.63;;;;;;;24.03;60.95;99846.88;4954386;28;20054;-81
2021/08/16 07:57:14;;;;;;;6.95;4.25;;;;;;;24.13;63.09;99842.41;4956076;28;20519;-82
2021/08/16 07:59:40;;;;;;;4.95;4.05;;;;;;;23.92;60.38;99838.06;4938338;28;20039;-83
2021/08/16 08:02:07;;;;;;;5.95;3.90;;;;;;;24.03;63.53;99843.34;4935065;29;20054;-83
2021/08/16 08:04:34;;;;;;;6.78;4.20;;;;;;;23.90;63.95;99851.69;4942088;28;20504;-82
2021/08/16 08:07:01;;;;;;;6.15;3.65;;;;;;;23.73;63.52;99850.47;4956051;28;20051;-82
2021/08/16 08:09:28;;;;;;;5.60;3.83;;;;;;;23.68;61.52;99850.03;4926717;29;20051;-81
2021/08/16 08:11:55;;;;;;;5.82;3.92;;;;;;;23.62;63.79;99857.78;4912577;29;20043;-81
2021/08/16 08:14:21;;;;;;;7.20;4.70;;;;;;;23.43;61.81;99851.28;4931953;28;20046;-83
2021/08/16 08:16:49;;;;;;;5.30;3.65;;;;;;;23.31;63.19;99852.34;4952560;29;20043;-83
2021/08/16 08:19:15;;;;;;;6.20;4.25;;;;;;;23.13;65.15;99856.63;4951807;28;20057;-82
2021/08/16 08:21:42;;;;;;;6.05;3.63;;;;;;;22.85;62.90;99856.25;4928656;29;20039;-83
2021/08/16 08:24:09;;;;;;;5.72;3.60;;;;;;;22.81;65.27;99856.63;4921297;29;20107;-81
2021/08/16 08:26:35;;;;;;;3.92;3.05;;;;;;;22.72;65.33;99861.78;4932069;28;20118;-81
2021/08/16 08:29:02;;;;;;;6.85;3.65;;;;;;;22.59;63.64;99865.63;4904528;29;20099;-81
2021/08/16 08:31:29;;;;;;;4.97;3.72;;;;;;;22.39;66.13;99873.53;4938269;28;20058;-79
2021/08/16 08:33:55;;;;;;;6.18;3.70;;;;;;;22.35;66.71;99877.44;4954287;28;20104;-80
2021/08/16 08:36:22;;;;;;;7.50;4.30;;;;;;;22.25;65.32;99879.16;4947056;28;20047;-81
2021/08/16 08:38:49;;;;;;;5.88;4.05;;;;;;;22.16;65.82;99882.59;4938184;28;20043;-80
2021/08/16 08:41:17;;;;;;;7.22;4.30;;;;;;;22.07;64.23;99873.44;4969930;28;20050;-80
2021/08/16 08:43:45;;;;;;;6.97;4.35;;;;;;;22.18;64.87;99870.72;4958886;28;20043;-81
2021/08/16 08:46:12;;;;;;;5.95;4.03;;;;;;;22.17;64.63;99868.16;4954449;28;20664;-80
2021/08/16 08:48:40;;;;;;;7.95;3.90;;;;;;;22.12;64.48;99860.50;4954093;28;20106;-80
2021/08/16 08:51:07;;;;;;;5.53;3.47;;;;;;;22.11;63.94;99868.66;4950143;28;20396;-80
2021/08/16 08:53:34;;;;;;;6.10;4.10;;;;;;;22.39;64.68;99873.53;4934829;29;20047;-81
2021/08/16 08:56:01;;;;;;;8.88;3.83;;;;;;;22.68;63.37;99870.25;4919860;28;20393;-81
2021/08/16 08:58:28;;;;;;;6.72;4.30;;;;;;;22.86;61.58;99865.19;4954413;28;20051;-81
2021/08/16 09:00:55;;;;;;;5.95;3.83;;;;;;;22.78;62.01;99863.09;4922639;28;20117;-80
2021/08/16 09:03:22;;;;;;;5.28;3.80;;;;;;;22.68;61.57;99876.47;4917426;29;20051;-80
2021/08/16 09:05:54;;;;;;;6.50;4.10;;;;;;;22.55;62.28;99874.97;4945608;28;20683;-79
2021/08/16 09:08:25;;;;;;;6.35;4.57;;;;;;;22.51;63.42;99874.34;4936770;28;20042;-81
2021/08/16 09:10:51;;;;;;;4.22;3.45;;;;;;;22.72;63.05;99864.50;4964794;28;20046;-81
2021/08/16 09:13:25;;;;;;;5.32;3.78;;;;;;;23.00;60.61;99871.13;4934505;28;20089;-81
2021/08/16 09:15:54;;;;;;;4.88;3.80;;;;;;;23.28;60.60;99863.38;4917312;28;20514;-80
2021/08/16 09:18:29;;;;;;;5.28;3.80;;;;;;;23.38;58.55;99863.47;4952314;28;20093;-81
2021/08/16 09:20:55;;;;;;;5.90;4.32;;;;;;;23.05;58.37;99873.44;4934120;28;20047;-81
2021/08/16 09:23:22;;;;;;;5.13;3.92;;;;;;;22.83;59.27;99889.66;4947879;28;20051;-80
2021/08/16 09:25:54;;;;;;;5.88;4.57;;;;;;;22.64;58.73;99882.28;4946010;28;20513;-81
2021/08/16 09:28:29;;;;;;;6.07;4.57;;;;;;;22.64;56.39;99887.66;4947059;28;20066;-80
2021/08/16 09:30:57;;;;;;;7.85;4.45;;;;;;;22.84;56.85;99889.53;4936303;28;20049;-79
2021/08/16 09:33:24;;;;;;;5.75;4.40;;;;;;;22.98;57.80;99885.72;4953950;28;20042;-81
2021/08/16 09:35:58;;;;;;;5.45;4.00;;;;;;;23.01;57.04;99889.00;4952871;28;20055;-82
2021/08/16 09:38:36;;;;;;;7.00;4.03;;;;;;;22.85;54.87;99896.66;4951227;28;20460;-80
2021/08/16 09:41:04;;;;;;;5.50;4.28;;;;;;;22.74;55.74;99896.66;4946659;28;20461;-80
2021/08/16 09:43:31;;;;;;;5.25;3.40;;;;;;;22.70;56.75;99908.66;4946080;28;20046;-81
2021/08/16 09:46:00;;;;;;;5.70;3.03;;;;;;;22.80;56.53;99895.31;4936267;28;20047;-80
2021/08/16 09:48:26;;;;;;;6.10;3.28;;;;;;;22.73;55.47;99911.13;4917407;28;20043;-80
2021/08/16 09:50:55;;;;;;;4.75;3.22;;;;;;;22.55;55.21;99910.81;4933430;28;20051;-80
2021/08/16 09:53:26;;;;;;;4.03;2.83;;;;;;;22.53;54.48;99917.28;4948571;28;20620;-81
2021/08/16 09:55:55;;;;;;;4.47;3.17;;;;;;;22.35;55.22;99915.09;4930074;29;20039;-81
2021/08/16 09:58:22;;;;;;;5.65;3.80;;;;;;;22.33;55.64;99924.28;4930500;28;20050;-82
2021/08/16 10:00:51;;;;;;;5.60;3.55;;;;;;;22.24;56.53;99916.97;4956233;28;20378;-81
2021/08/16 10:03:19;;;;;;;4.30;3.15;;;;;;;22.30;55.28;99927.25;4953908;28;20520;-80
2021/08/16 10:05:47;;;;;;;8.75;3.10;;;;;;;22.20;55.13;99924.44;4975986;28;20695;-81
2021/08/16 10:08:23;;;;;;;4.82;3.45;;;;;;;22.40;56.26;99917.44;4959120;28;20444;-81
2021/08/16 10:10:55;;;;;;;4.80;2.95;;;;;;;22.44;55.61;99933.19;4951398;28;20050;-80
2021/08/16 10:13:21;;;;;;;3.80;2.88;;;;;;;22.40;56.13;99928.19;4936711;28;20050;-80
2021/08/16 10:15:57;;;;;;;4.40;2.90;;;;;;;22.45;55.83;99937.63;4920378;28;20046;-81
2021/08/16 10:18:27;;;;;;;6.38;3.17;;;;;;;22.57;56.24;99925.00;4942374;28;20042;-81
2021/08/16 10:20:54;;;;;;;6.00;3.05;;;;;;;22.75;56.41;99928.00;4932501;28;20047;-80
2021/08/16 10:23:23;;;;;;;5.38;3.13;;;;;;;22.85;54.78;99947.81;4919800;28;20042;-79
2021/08/16 10:25:52;;;;;;;6.18;3.35;;;;;;;22.23;54.78;99932.25;4956031;28;20039;-80
2021/08/16 10:28:32;;;;;;;4.93;3.15;;;;;;;22.41;56.60;99935.28;4939788;28;20130;-82
2021/08/16 10:31:01;;;;;;;4.07;2.90;;;;;;;22.29;56.26;99930.91;4945183;28;20035;-81
2021/08/16 10:33:28;;;;;;;6.38;3.20;;;;;;;22.31;55.38;99929.81;4923935;28;20385;-81
2021/08/16 10:35:55;;;;;;;4.75;3.03;;;;;;;22.16;53.23;99920.28;4937177;28;20038;-81
2021/08/16 10:38:59;;;;;;;4.45;3.13;;;;;;;22.56;53.75;99917.03;4951727;28;20042;-81
2021/08/16 10:41:28;;;;;;;6.05;3.28;;;;;;;22.81;54.79;99918.56;4923894;28;20054;-81
2021/08/16 10:43:55;;;;;;;4.80;3.30;;;;;;;22.76;52.00;99927.88;4972179;28;20050;-81
2021/08/16 10:46:23;;;;;;;8.50;3.40;;;;;;;22.94;53.69;99925.50;4948091;28;20052;-81
2021/08/16 10:49:03;;;;;;;4.10;3.38;;;;;;;23.11;53.14;99925.94;4957544;28;20046;-79
2021/08/16 10:51:44;;;;;;;5.25;2.97;;;;;;;23.48;52.84;99916.44;4924486;28;20513;-81
2021/08/16 10:54:25;;;;;;;5.38;3.25;;;;;;;23.59;50.67;99929.00;4931149;28;20097;-82
2021/08/16 10:56:54;;;;;;;4.03;2.90;;;;;;;23.50;51.33;99911.78;4922024;28;20035;-80
2021/08/16 10:59:22;;;;;;;5.13;3.20;;;;;;;23.72;52.24;99923.44;4938366;28;20511;-80
2021/08/16 11:01:49;;;;;;;4.40;3.35;;;;;;;23.99;51.73;99925.56;4953389;28;20094;-80
2021/08/16 11:04:35;;;;;;;3.70;3.10;;;;;;;24.35;51.44;99926.88;4919750;28;20066;-81
2021/08/16 11:07:04;;;;;;;4.05;3.15;;;;;;;24.11;49.71;99913.66;4955988;28;20530;-81
2021/08/16 11:09:33;;;;;;;5.30;3.85;;;;;;;24.30;49.84;99907.47;4914342;28;20840;-80
2021/08/16 11:12:07;;;;;;;6.07;3.22;;;;;;;24.56;49.75;99905.19;4934987;28;20042;-83
2021/08/16 11:14:39;;;;;;;7.68;3.92;;;;;;;24.48;48.13;99897.78;4939378;28;20043;-81
2021/08/16 11:17:07;;;;;;;4.70;3.30;;;;;;;24.55;48.47;99904.34;4936964;28;20404;-81
2021/08/16 11:19:48;;;;;;;5.00;3.72;;;;;;;24.42;48.57;99903.72;4931334;28;20526;-80
2021/08/16 11:22:16;;;;;;;5.85;3.70;;;;;;;24.07;48.38;99891.50;4951365;28;20038;-80
2021/08/16 11:24:45;;;;;;;5.60;3.92;;;;;;;24.32;49.59;99898.31;4943511;28;20213;-80
2021/08/16 11:27:17;;;;;;;5.40;4.05;;;;;;;24.57;49.12;99888.00;4939512;28;20042;-81
2021/08/16 11:29:44;;;;;;;6.68;4.13;;;;;;;24.44;48.94;99893.63;4936548;28;20049;-81
2021/08/16 11:32:10;;;;;;;7.47;3.55;;;;;;;24.61;48.97;99886.69;4936118;28;20054;-82